Time;durP1;ratioP1;P1;durP2;ratioP2;P2;SDS_P1;SDS_P2;PMS_P1;PMS_P2;Temp;Humidity;BMP_temperature;BMP_pressure;BME280_temperature;BME280_humidity;BME280_pressure;Samples;Min_cycle;Max_cycle;Signal;HPM_P1;HPM_P2
2022/01/21 00:01:50;;;;;;;20.25;2.42;;;;;;;;;;5010800;28;20107;-62
2022/01/21 00:04:16;;;;;;;18.58;2.47;;;;;;;;;;5013503;28;20048;-62
2022/01/21 00:06:42;;;;;;;21.05;3.13;;;;;;;;;;5009485;28;20401;-62
2022/01/21 00:09:08;;;;;;;18.20;2.78;;;;;;;;;;5012210;28;20433;-62
2022/01/21 00:11:36;;;;;;;28.42;3.60;;;;;;;;;;5012999;28;20042;-62
2022/01/21 00:14:02;;;;;;;19.40;2.47;;;;;;;;;;5011913;28;20061;-62
2022/01/21 00:16:29;;;;;;;20.52;2.65;;;;;;;;;;5010867;28;20038;-62
2022/01/21 00:19:00;;;;;;;9.55;1.65;;;;;;;;;;5013338;28;20108;-62
2022/01/21 00:32:28;;;;;;;20.08;2.53;;;;;;;;;;5011027;28;20046;-62
2022/01/21 00:34:54;;;;;;;17.73;2.53;;;;;;;;;;5012806;28;20116;-62
2022/01/21 00:37:20;;;;;;;29.45;2.60;;;;;;;;;;5010372;28;20103;-62
2022/01/21 00:39:52;;;;;;;7.05;1.08;;;;;;;;;;5012763;28;20042;-62
2022/01/21 00:44:51;;;;;;;8.10;1.10;;;;;;;;;;5005538;28;20061;-62
2022/01/21 00:47:17;;;;;;;9.93;1.20;;;;;;;;;;5007115;28;20042;-62
2022/01/21 00:49:44;;;;;;;6.93;0.80;;;;;;;;;;5009923;28;20073;-62
2022/01/21 00:52:10;;;;;;;5.18;0.80;;;;;;;;;;5012314;28;20478;-62
2022/01/21 00:54:37;;;;;;;5.43;1.23;;;;;;;;;;5011601;28;20053;-62
2022/01/21 00:57:03;;;;;;;6.80;1.00;;;;;;;;;;5011761;28;20083;-62
2022/01/21 00:59:30;;;;;;;5.03;0.90;;;;;;;;;;5011733;28;20052;-62
2022/01/21 01:01:56;;;;;;;7.75;1.88;;;;;;;;;;5011425;28;20046;-62
2022/01/21 01:04:22;;;;;;;14.20;2.70;;;;;;;;;;5011409;28;20034;-62
2022/01/21 01:06:48;;;;;;;8.68;1.27;;;;;;;;;;5012598;28;20097;-62
2022/01/21 01:09:15;;;;;;;13.88;2.20;;;;;;;;;;5012106;28;20061;-62
2022/01/21 01:22:28;;;;;;;10.00;2.03;;;;;;;;;;5012164;28;20054;-62
2022/01/21 01:27:41;;;;;;;14.40;3.60;;;;;;;;;;5008323;28;20060;-62
2022/01/21 01:30:10;;;;;;;12.05;1.63;;;;;;;;;;5012034;28;20081;-62
2022/01/21 01:32:37;;;;;;;10.50;1.92;;;;;;;;;;5011306;28;20092;-62
2022/01/21 01:35:03;;;;;;;19.83;2.17;;;;;;;;;;5012094;28;20460;-62
2022/01/21 01:37:43;;;;;;;12.43;3.25;;;;;;;;;;5011976;28;20054;-62
2022/01/21 01:43:10;;;;;;;19.92;4.88;;;;;;;;;;5012196;28;20085;-62
2022/01/21 01:50:57;;;;;;;26.75;2.97;;;;;;;;;;5003259;28;20093;-62
2022/01/21 01:53:25;;;;;;;17.42;2.30;;;;;;;;;;5004085;28;20042;-62
2022/01/21 01:55:52;;;;;;;14.30;2.55;;;;;;;;;;5011883;28;20042;-62
2022/01/21 01:58:18;;;;;;;14.10;2.08;;;;;;;;;;5011908;28;20044;-62
2022/01/21 02:00:44;;;;;;;16.83;1.67;;;;;;;;;;5009449;28;20052;-62
2022/01/21 02:03:11;;;;;;;13.43;2.05;;;;;;;;;;5010424;28;20497;-62
2022/01/21 02:05:38;;;;;;;16.95;2.55;;;;;;;;;;5010612;28;20081;-62
2022/01/21 02:08:04;;;;;;;14.95;1.90;;;;;;;;;;5012096;28;20401;-62
2022/01/21 02:10:30;;;;;;;15.93;2.10;;;;;;;;;;5046145;28;20398;-62
2022/01/21 02:13:03;;;;;;;12.40;1.70;;;;;;;;;;5015167;28;20046;-62
2022/01/21 02:15:30;;;;;;;12.75;2.50;;;;;;;;;;5013237;28;20567;-62
2022/01/21 02:23:28;;;;;;;20.05;2.92;;;;;;;;;;5014352;28;20046;-63
2022/01/21 02:25:54;;;;;;;15.25;2.40;;;;;;;;;;5013640;28;20045;-62
2022/01/21 02:28:20;;;;;;;16.50;1.70;;;;;;;;;;5013174;28;20144;-62
2022/01/21 02:30:53;;;;;;;12.40;1.85;;;;;;;;;;5014169;28;20033;-62
2022/01/21 02:33:20;;;;;;;10.35;1.85;;;;;;;;;;5012730;28;20470;-62
2022/01/21 02:35:46;;;;;;;16.85;2.00;;;;;;;;;;5012982;28;20405;-62
2022/01/21 02:38:12;;;;;;;12.80;1.92;;;;;;;;;;5013769;28;20042;-62
2022/01/21 02:40:38;;;;;;;20.63;2.60;;;;;;;;;;5011660;28;20180;-62
2022/01/21 02:43:04;;;;;;;8.30;1.38;;;;;;;;;;5013310;28;20041;-62
2022/01/21 02:45:31;;;;;;;11.15;1.27;;;;;;;;;;5013424;28;20161;-62
2022/01/21 02:47:57;;;;;;;23.95;2.15;;;;;;;;;;5013446;28;20371;-62
2022/01/21 02:50:23;;;;;;;18.52;3.90;;;;;;;;;;5012806;28;20428;-62
2022/01/21 02:52:57;;;;;;;15.15;3.85;;;;;;;;;;5013153;28;20061;-62
2022/01/21 02:55:24;;;;;;;24.02;3.17;;;;;;;;;;5009878;28;20046;-62
2022/01/21 02:57:50;;;;;;;20.40;4.43;;;;;;;;;;5009022;28;20042;-62
2022/01/21 03:00:16;;;;;;;14.27;2.20;;;;;;;;;;5013037;28;20042;-62
2022/01/21 03:02:43;;;;;;;18.02;3.45;;;;;;;;;;5013657;28;20041;-62
2022/01/21 03:05:13;;;;;;;15.95;2.20;;;;;;;;;;5012644;28;20137;-62
2022/01/21 03:07:40;;;;;;;19.95;3.65;;;;;;;;;;5011636;28;20057;-62
2022/01/21 03:10:07;;;;;;;11.35;1.95;;;;;;;;;;5013472;28;20223;-62
2022/01/21 03:12:34;;;;;;;20.77;3.90;;;;;;;;;;5012806;28;20052;-62
2022/01/21 03:15:00;;;;;;;16.08;3.40;;;;;;;;;;5012968;28;20046;-62
2022/01/21 03:17:26;;;;;;;16.65;2.38;;;;;;;;;;5010215;28;20042;-62
2022/01/21 03:19:52;;;;;;;17.00;1.90;;;;;;;;;;5012885;28;20040;-62
2022/01/21 03:22:18;;;;;;;10.90;1.38;;;;;;;;;;5012938;28;20060;-62
2022/01/21 03:24:44;;;;;;;15.75;1.80;;;;;;;;;;5010615;28;20081;-62
2022/01/21 03:27:10;;;;;;;15.95;1.75;;;;;;;;;;5012474;28;20046;-62
2022/01/21 03:29:36;;;;;;;18.13;2.72;;;;;;;;;;5013080;28;20042;-62
2022/01/21 03:32:03;;;;;;;14.07;1.92;;;;;;;;;;5012072;28;20473;-62
2022/01/21 03:34:31;;;;;;;11.32;3.00;;;;;;;;;;5012954;28;20033;-62
2022/01/21 03:36:58;;;;;;;17.77;1.70;;;;;;;;;;5012744;28;20132;-62
2022/01/21 03:39:24;;;;;;;12.90;1.88;;;;;;;;;;5012401;28;20117;-62
2022/01/21 03:41:50;;;;;;;16.63;1.75;;;;;;;;;;5013584;28;20056;-62
2022/01/21 03:44:16;;;;;;;14.18;1.95;;;;;;;;;;5013536;28;20045;-62
2022/01/21 03:46:42;;;;;;;15.40;2.50;;;;;;;;;;5013128;28;20096;-62
2022/01/21 03:49:09;;;;;;;16.38;1.75;;;;;;;;;;5013672;28;20041;-62
2022/01/21 03:51:35;;;;;;;13.80;1.65;;;;;;;;;;5013766;28;20095;-62
2022/01/21 03:54:01;;;;;;;17.67;2.25;;;;;;;;;;5012759;28;20121;-63
2022/01/21 03:56:28;;;;;;;15.88;3.05;;;;;;;;;;5012250;28;20132;-62
2022/01/21 03:58:54;;;;;;;13.80;3.20;;;;;;;;;;5013368;28;20049;-62
2022/01/21 04:01:23;;;;;;;16.73;1.90;;;;;;;;;;5006370;28;20368;-62
2022/01/21 04:03:49;;;;;;;16.05;2.10;;;;;;;;;;5013304;28;20494;-62
2022/01/21 04:06:15;;;;;;;9.27;1.67;;;;;;;;;;5013362;28;20421;-62
2022/01/21 04:08:41;;;;;;;10.60;1.70;;;;;;;;;;5012235;28;20103;-62
2022/01/21 04:11:07;;;;;;;9.27;1.23;;;;;;;;;;5011663;28;20521;-62
2022/01/21 04:13:34;;;;;;;13.75;3.35;;;;;;;;;;5013317;28;20041;-62
2022/01/21 04:16:02;;;;;;;14.90;1.77;;;;;;;;;;5042787;28;20493;-62
2022/01/21 04:18:29;;;;;;;15.10;1.88;;;;;;;;;;5010300;28;20041;-62
2022/01/21 04:20:56;;;;;;;13.07;1.40;;;;;;;;;;5010981;28;20346;-62
2022/01/21 04:23:22;;;;;;;12.23;1.98;;;;;;;;;;5011886;28;20044;-61
2022/01/21 04:25:49;;;;;;;17.30;1.70;;;;;;;;;;5012894;28;20113;-62
2022/01/21 04:28:15;;;;;;;13.85;1.80;;;;;;;;;;5012396;28;20042;-62
2022/01/21 04:30:42;;;;;;;15.13;1.83;;;;;;;;;;5011697;28;20069;-62
2022/01/21 04:33:08;;;;;;;16.17;1.58;;;;;;;;;;5012427;28;20060;-62
2022/01/21 04:35:35;;;;;;;12.27;1.63;;;;;;;;;;5012046;28;20077;-62
2022/01/21 04:38:04;;;;;;;14.95;1.85;;;;;;;;;;5012766;28;20149;-62
2022/01/21 04:40:35;;;;;;;13.07;1.63;;;;;;;;;;5011625;28;20046;-62
2022/01/21 04:48:32;;;;;;;14.25;2.45;;;;;;;;;;5011145;28;20137;-62
2022/01/21 04:51:11;;;;;;;20.58;1.80;;;;;;;;;;5011554;28;20054;-62
2022/01/21 04:53:37;;;;;;;18.30;1.88;;;;;;;;;;5010827;28;20516;-63
2022/01/21 04:56:03;;;;;;;11.60;1.70;;;;;;;;;;5011689;28;20398;-62
2022/01/21 04:58:30;;;;;;;11.63;1.45;;;;;;;;;;5012397;28;20044;-62
2022/01/21 05:00:56;;;;;;;12.90;1.73;;;;;;;;;;5012210;28;20129;-62
2022/01/21 05:03:23;;;;;;;12.98;1.63;;;;;;;;;;5003789;28;20104;-62
2022/01/21 05:05:49;;;;;;;19.13;2.55;;;;;;;;;;5001183;28;20486;-62
2022/01/21 05:08:27;;;;;;;12.20;1.00;;;;;;;;;;4998669;28;20046;-62
2022/01/21 05:10:53;;;;;;;9.27;1.00;;;;;;;;;;5004936;28;20100;-62
2022/01/21 05:13:24;;;;;;;15.90;2.67;;;;;;;;;;5008391;28;20042;-62
2022/01/21 05:16:07;;;;;;;10.57;1.38;;;;;;;;;;5012225;28;20450;-62
2022/01/21 05:18:33;;;;;;;12.18;1.77;;;;;;;;;;5011430;28;20050;-62
2022/01/21 05:20:59;;;;;;;15.15;1.75;;;;;;;;;;5012166;28;20153;-62
2022/01/21 05:23:26;;;;;;;12.45;1.75;;;;;;;;;;5011753;28;20121;-62
2022/01/21 05:25:52;;;;;;;22.58;3.35;;;;;;;;;;5010991;28;20046;-62
2022/01/21 05:28:18;;;;;;;19.75;2.67;;;;;;;;;;5012008;28;20446;-62
2022/01/21 05:30:45;;;;;;;16.05;2.35;;;;;;;;;;5011905;28;20088;-62
2022/01/21 05:33:11;;;;;;;17.15;1.95;;;;;;;;;;5010872;28;20482;-62
2022/01/21 05:35:37;;;;;;;18.23;2.88;;;;;;;;;;5012043;28;20038;-62
2022/01/21 05:38:03;;;;;;;13.98;1.85;;;;;;;;;;5007448;28;20067;-62
2022/01/21 05:40:32;;;;;;;19.33;2.42;;;;;;;;;;5011972;28;20180;-62
2022/01/21 05:42:58;;;;;;;12.50;1.67;;;;;;;;;;5015558;28;20133;-62
2022/01/21 05:48:09;;;;;;;12.45;1.70;;;;;;;;;;5012697;28;20065;-62
2022/01/21 05:50:35;;;;;;;22.35;2.92;;;;;;;;;;5013327;28;20038;-62
2022/01/21 05:53:07;;;;;;;13.55;2.63;;;;;;;;;;5012707;28;20053;-62
2022/01/21 05:55:33;;;;;;;21.27;2.47;;;;;;;;;;5014280;28;20038;-62
2022/01/21 05:58:00;;;;;;;21.67;2.35;;;;;;;;;;5012870;28;20068;-62
2022/01/21 06:00:26;;;;;;;16.08;2.53;;;;;;;;;;5010289;28;20082;-62
2022/01/21 06:02:52;;;;;;;16.08;1.77;;;;;;;;;;5013869;28;20174;-62
2022/01/21 06:05:18;;;;;;;24.58;2.63;;;;;;;;;;5016443;28;20113;-64
2022/01/21 06:07:44;;;;;;;24.42;3.03;;;;;;;;;;5011720;28;20096;-62
2022/01/21 06:10:13;;;;;;;10.52;1.55;;;;;;;;;;5016244;28;20084;-63
2022/01/21 06:12:39;;;;;;;19.42;2.65;;;;;;;;;;5019400;28;20053;-63
2022/01/21 06:15:06;;;;;;;20.35;2.47;;;;;;;;;;5012914;28;20038;-63
2022/01/21 06:17:34;;;;;;;18.05;1.95;;;;;;;;;;5015100;28;20107;-63
2022/01/21 06:20:00;;;;;;;10.60;2.13;;;;;;;;;;5014532;28;20377;-63
2022/01/21 06:22:26;;;;;;;18.23;1.92;;;;;;;;;;5014398;28;20053;-63
2022/01/21 06:24:53;;;;;;;14.55;1.80;;;;;;;;;;5013062;28;20073;-63
2022/01/21 06:27:26;;;;;;;13.32;2.08;;;;;;;;;;5012037;28;20053;-63
2022/01/21 06:29:52;;;;;;;13.02;2.40;;;;;;;;;;5016197;28;20046;-63
2022/01/21 06:32:18;;;;;;;19.92;3.47;;;;;;;;;;5013424;28;20060;-63
2022/01/21 06:34:44;;;;;;;14.43;3.03;;;;;;;;;;5016783;28;20045;-63
2022/01/21 06:37:11;;;;;;;15.30;2.17;;;;;;;;;;5003140;28;20050;-63
2022/01/21 06:39:37;;;;;;;20.33;2.22;;;;;;;;;;5001459;28;20193;-62
2022/01/21 06:42:03;;;;;;;16.25;2.03;;;;;;;;;;5014390;28;20046;-62
2022/01/21 06:44:29;;;;;;;16.67;2.15;;;;;;;;;;5000937;28;20041;-63
2022/01/21 06:46:55;;;;;;;16.38;1.77;;;;;;;;;;5005196;28;20125;-62
2022/01/21 06:49:21;;;;;;;15.43;1.85;;;;;;;;;;5006104;28;20049;-62
2022/01/21 06:51:48;;;;;;;18.13;2.95;;;;;;;;;;5013719;28;20046;-63
2022/01/21 06:54:14;;;;;;;22.45;2.58;;;;;;;;;;5001977;28;20050;-63
2022/01/21 06:56:40;;;;;;;18.33;2.55;;;;;;;;;;5011355;28;20414;-63
2022/01/21 06:59:06;;;;;;;24.38;2.10;;;;;;;;;;5008392;28;20358;-62
2022/01/21 07:01:32;;;;;;;19.60;2.13;;;;;;;;;;5014835;28;20034;-62
2022/01/21 07:03:58;;;;;;;15.00;2.75;;;;;;;;;;5005144;28;20045;-62
2022/01/21 07:06:25;;;;;;;14.18;3.50;;;;;;;;;;5008922;28;20054;-64
2022/01/21 07:08:51;;;;;;;20.00;3.08;;;;;;;;;;5004386;28;20414;-63
2022/01/21 07:11:17;;;;;;;17.95;2.33;;;;;;;;;;5000842;28;20042;-63
2022/01/21 07:13:43;;;;;;;26.23;2.83;;;;;;;;;;5008302;28;20509;-64
2022/01/21 07:16:09;;;;;;;18.77;3.22;;;;;;;;;;5006475;28;20046;-63
2022/01/21 07:18:35;;;;;;;14.93;2.80;;;;;;;;;;5008036;28;20042;-63
2022/01/21 07:21:01;;;;;;;18.23;3.03;;;;;;;;;;5003279;28;20068;-63
2022/01/21 07:23:27;;;;;;;16.13;3.20;;;;;;;;;;5011142;28;20046;-63
2022/01/21 07:25:54;;;;;;;21.95;2.47;;;;;;;;;;5003589;28;20054;-63
2022/01/21 07:28:20;;;;;;;27.77;2.85;;;;;;;;;;5013873;28;20038;-63
2022/01/21 07:30:46;;;;;;;24.95;3.03;;;;;;;;;;5014109;28;20091;-70
2022/01/21 07:33:13;;;;;;;19.10;2.38;;;;;;;;;;5010627;28;20065;-63
2022/01/21 07:35:40;;;;;;;25.23;2.78;;;;;;;;;;4998388;28;20092;-62
2022/01/21 07:38:06;;;;;;;19.17;2.50;;;;;;;;;;5008117;28;20045;-63
2022/01/21 07:40:33;;;;;;;23.20;3.03;;;;;;;;;;5015947;28;20429;-63
2022/01/21 07:42:59;;;;;;;15.48;2.42;;;;;;;;;;5005148;28;20060;-62
2022/01/21 07:45:25;;;;;;;27.13;3.60;;;;;;;;;;5005506;28;20546;-62
2022/01/21 07:47:51;;;;;;;19.02;2.40;;;;;;;;;;5011033;28;20099;-63
2022/01/21 07:50:17;;;;;;;30.65;3.35;;;;;;;;;;5003242;28;20128;-63
2022/01/21 07:52:43;;;;;;;27.58;4.38;;;;;;;;;;5003082;28;20509;-63
2022/01/21 07:55:10;;;;;;;29.45;3.90;;;;;;;;;;5004660;28;20129;-63
2022/01/21 07:57:36;;;;;;;35.53;3.40;;;;;;;;;;5001908;28;20095;-63
2022/01/21 08:00:03;;;;;;;24.17;5.68;;;;;;;;;;5008942;28;20042;-63
2022/01/21 08:02:31;;;;;;;23.27;4.85;;;;;;;;;;5010860;28;20060;-65
2022/01/21 08:05:00;;;;;;;29.75;5.75;;;;;;;;;;5011870;28;20457;-65
2022/01/21 08:07:26;;;;;;;24.38;3.83;;;;;;;;;;5000407;28;20126;-62
2022/01/21 08:09:53;;;;;;;31.25;5.38;;;;;;;;;;5004985;28;20046;-62
2022/01/21 08:12:20;;;;;;;27.75;3.92;;;;;;;;;;5004183;28;20385;-62
2022/01/21 08:14:46;;;;;;;35.97;3.25;;;;;;;;;;5004627;28;20038;-62
2022/01/21 08:17:12;;;;;;;37.90;5.65;;;;;;;;;;5003855;28;20063;-62
2022/01/21 08:19:38;;;;;;;28.60;3.45;;;;;;;;;;4995188;28;20435;-62
2022/01/21 08:22:05;;;;;;;25.98;3.10;;;;;;;;;;5028608;28;20058;-62
2022/01/21 08:24:31;;;;;;;21.92;2.70;;;;;;;;;;5029668;28;20116;-62
2022/01/21 08:26:57;;;;;;;22.02;4.53;;;;;;;;;;5024215;28;20132;-62
2022/01/21 08:29:24;;;;;;;25.75;3.35;;;;;;;;;;5006315;28;20038;-61
2022/01/21 08:31:50;;;;;;;22.10;3.03;;;;;;;;;;5010059;28;20148;-61
2022/01/21 08:34:16;;;;;;;22.98;3.75;;;;;;;;;;5003042;28;20470;-62
2022/01/21 08:36:44;;;;;;;10.80;1.83;;;;;;;;;;5000244;28;20439;-62
2022/01/21 08:39:13;;;;;;;34.42;3.83;;;;;;;;;;5002431;28;20062;-62
2022/01/21 08:41:39;;;;;;;21.40;2.97;;;;;;;;;;5000808;28;20054;-63
2022/01/21 08:44:05;;;;;;;23.52;3.38;;;;;;;;;;4999521;28;20202;-63
2022/01/21 08:46:31;;;;;;;31.55;3.80;;;;;;;;;;4999007;28;20054;-62
2022/01/21 08:48:57;;;;;;;33.13;2.85;;;;;;;;;;4998788;28;20103;-62
2022/01/21 08:51:28;;;;;;;27.92;3.45;;;;;;;;;;5009763;28;20038;-62
2022/01/21 08:53:54;;;;;;;32.97;3.53;;;;;;;;;;5022159;28;20125;-62
2022/01/21 08:56:21;;;;;;;22.65;3.10;;;;;;;;;;5008296;28;20087;-62
2022/01/21 08:58:49;;;;;;;27.83;3.10;;;;;;;;;;5005548;28;20054;-62
2022/01/21 09:01:16;;;;;;;21.23;3.10;;;;;;;;;;5008630;28;20050;-62
2022/01/21 09:03:42;;;;;;;30.70;4.43;;;;;;;;;;5006964;28;20088;-62
2022/01/21 09:06:09;;;;;;;23.95;3.95;;;;;;;;;;5006869;28;20050;-62
2022/01/21 09:08:38;;;;;;;21.27;3.13;;;;;;;;;;5005039;28;20465;-62
2022/01/21 09:11:05;;;;;;;37.40;4.63;;;;;;;;;;5006609;28;20054;-63
2022/01/21 09:13:32;;;;;;;27.80;3.75;;;;;;;;;;5010809;28;20038;-63
2022/01/21 09:16:00;;;;;;;28.17;3.67;;;;;;;;;;5010940;28;20058;-63
2022/01/21 09:18:33;;;;;;;39.25;4.28;;;;;;;;;;5042413;28;20046;-63
2022/01/21 09:21:00;;;;;;;41.70;4.22;;;;;;;;;;5007541;28;20056;-63
2022/01/21 09:23:26;;;;;;;36.72;4.88;;;;;;;;;;5007702;28;20042;-63
2022/01/21 09:25:52;;;;;;;27.67;4.10;;;;;;;;;;5008452;28;20046;-63
2022/01/21 09:28:18;;;;;;;32.20;4.18;;;;;;;;;;5007456;28;20121;-62
2022/01/21 09:30:44;;;;;;;39.20;5.70;;;;;;;;;;5008115;28;20042;-63
2022/01/21 09:33:10;;;;;;;41.10;5.13;;;;;;;;;;5008777;28;20038;-63
2022/01/21 09:35:37;;;;;;;34.33;4.18;;;;;;;;;;5007923;28;20042;-63
2022/01/21 09:38:03;;;;;;;21.73;4.38;;;;;;;;;;5008245;28;20433;-63
2022/01/21 09:40:31;;;;;;;26.02;3.83;;;;;;;;;;5006121;28;20042;-63
2022/01/21 09:42:57;;;;;;;30.48;3.83;;;;;;;;;;5009666;28;20490;-63
2022/01/21 09:45:24;;;;;;;43.05;4.88;;;;;;;;;;5008317;28;20088;-63
2022/01/21 09:47:54;;;;;;;23.85;3.85;;;;;;;;;;5008872;28;20046;-63
2022/01/21 09:50:22;;;;;;;27.55;3.95;;;;;;;;;;5007685;28;20081;-62
2022/01/21 09:52:49;;;;;;;26.13;4.22;;;;;;;;;;5004346;28;20050;-63
2022/01/21 09:55:17;;;;;;;25.50;3.88;;;;;;;;;;5008952;28;20038;-63
2022/01/21 09:57:46;;;;;;;20.88;3.10;;;;;;;;;;5008276;28;20156;-63
2022/01/21 10:00:13;;;;;;;20.05;2.72;;;;;;;;;;5006604;28;20074;-63
2022/01/21 10:02:40;;;;;;;33.80;3.55;;;;;;;;;;5008638;28;20049;-62
2022/01/21 10:05:07;;;;;;;18.63;2.28;;;;;;;;;;5008244;28;20433;-63
2022/01/21 10:07:34;;;;;;;18.77;2.92;;;;;;;;;;5008309;28;20109;-62
2022/01/21 10:10:06;;;;;;;23.35;3.67;;;;;;;;;;5007486;28;20042;-62
2022/01/21 10:12:33;;;;;;;23.52;2.50;;;;;;;;;;5007404;28;20037;-62
2022/01/21 10:14:59;;;;;;;25.98;4.40;;;;;;;;;;5007645;28;20061;-62
2022/01/21 10:17:25;;;;;;;26.25;3.97;;;;;;;;;;5006580;28;20497;-63
2022/01/21 10:19:51;;;;;;;25.58;3.20;;;;;;;;;;5006267;28;20501;-63
2022/01/21 10:22:23;;;;;;;20.33;3.90;;;;;;;;;;5007298;28;20049;-63
2022/01/21 10:24:58;;;;;;;21.45;3.70;;;;;;;;;;5008919;28;20410;-63
2022/01/21 10:27:25;;;;;;;20.55;3.10;;;;;;;;;;5005544;28;20420;-63
2022/01/21 10:29:51;;;;;;;21.92;4.20;;;;;;;;;;5007100;28;20047;-63
2022/01/21 10:32:31;;;;;;;26.33;3.55;;;;;;;;;;5042815;28;20050;-63
2022/01/21 10:34:57;;;;;;;22.02;3.33;;;;;;;;;;5011219;28;20107;-62
2022/01/21 10:37:24;;;;;;;20.70;2.92;;;;;;;;;;5011841;28;20069;-63
2022/01/21 10:39:54;;;;;;;28.63;4.03;;;;;;;;;;5010410;28;20042;-62
2022/01/21 10:42:22;;;;;;;30.63;3.67;;;;;;;;;;5011592;28;20476;-62
2022/01/21 10:44:49;;;;;;;24.33;5.22;;;;;;;;;;5012381;28;20056;-62
2022/01/21 10:47:16;;;;;;;35.08;5.80;;;;;;;;;;5012821;28;20132;-62
2022/01/21 10:49:57;;;;;;;23.77;4.00;;;;;;;;;;5010027;28;20041;-62
2022/01/21 10:52:31;;;;;;;17.85;3.35;;;;;;;;;;5004075;28;20034;-62
2022/01/21 10:54:57;;;;;;;27.90;3.92;;;;;;;;;;5001796;28;20051;-62
2022/01/21 10:57:24;;;;;;;25.48;3.60;;;;;;;;;;5006369;28;20462;-62
2022/01/21 10:59:58;;;;;;;31.73;4.25;;;;;;;;;;5013988;28;20046;-62
2022/01/21 11:02:24;;;;;;;;;;;;;;;;;;5013210;28;20046;-61
2022/01/21 11:04:51;;;;;;;23.95;2.60;;;;;;;;;;5015748;28;19943;-61
2022/01/21 11:07:37;;;;;;;27.15;4.50;;;;;;;;;;5012254;28;20034;-62
2022/01/21 11:10:04;;;;;;;21.55;3.47;;;;;;;;;;5010990;28;20052;-61
2022/01/21 11:12:33;;;;;;;20.08;3.28;;;;;;;;;;5013464;28;20050;-62
2022/01/21 11:15:03;;;;;;;12.95;2.70;;;;;;;;;;5013595;28;20470;-62
2022/01/21 11:17:29;;;;;;;25.05;2.90;;;;;;;;;;5012324;28;20054;-62
2022/01/21 11:20:02;;;;;;;17.30;3.03;;;;;;;;;;5013218;28;20030;-61
2022/01/21 11:22:29;;;;;;;19.95;2.72;;;;;;;;;;5013163;28;20050;-61
2022/01/21 11:24:59;;;;;;;15.35;2.33;;;;;;;;;;5012017;28;20516;-61
2022/01/21 11:27:26;;;;;;;15.77;3.00;;;;;;;;;;5013101;28;20125;-62
2022/01/21 11:29:53;;;;;;;25.25;3.63;;;;;;;;;;5011726;28;20136;-61
2022/01/21 11:32:19;;;;;;;28.13;2.83;;;;;;;;;;5011796;28;20045;-62
2022/01/21 11:34:46;;;;;;;18.42;2.22;;;;;;;;;;5012926;28;20096;-62
2022/01/21 11:37:12;;;;;;;20.02;3.08;;;;;;;;;;5011399;28;20116;-62
2022/01/21 11:39:39;;;;;;;20.55;2.95;;;;;;;;;;5012096;28;20091;-62
2022/01/21 11:42:07;;;;;;;25.85;2.92;;;;;;;;;;5012317;28;20100;-62
2022/01/21 11:44:36;;;;;;;25.75;2.63;;;;;;;;;;5011970;28;20045;-62
2022/01/21 11:47:15;;;;;;;17.08;2.92;;;;;;;;;;5024206;28;20046;-62
2022/01/21 11:49:43;;;;;;;23.70;2.95;;;;;;;;;;5008921;28;20180;-62
2022/01/21 11:52:13;;;;;;;22.05;3.20;;;;;;;;;;5010616;28;20045;-62
2022/01/21 11:54:40;;;;;;;22.92;3.70;;;;;;;;;;5011972;28;20050;-62
2022/01/21 11:57:06;;;;;;;27.23;5.43;;;;;;;;;;5011967;28;20050;-62
2022/01/21 12:01:59;;;;;;;20.42;3.40;;;;;;;;;;5010706;28;20061;-62
2022/01/21 12:04:31;;;;;;;21.77;3.58;;;;;;;;;;5011849;28;20038;-62
2022/01/21 12:06:59;;;;;;;22.50;3.15;;;;;;;;;;5009944;28;20054;-62
2022/01/21 12:09:47;;;;;;;27.83;3.30;;;;;;;;;;5011622;28;20107;-62
2022/01/21 12:12:14;;;;;;;21.17;3.65;;;;;;;;;;5023561;28;20505;-62
2022/01/21 12:14:44;;;;;;;32.38;3.78;;;;;;;;;;5010955;28;20053;-62
2022/01/21 12:17:17;;;;;;;19.80;3.20;;;;;;;;;;5010468;28;20049;-61
2022/01/21 12:19:43;;;;;;;25.67;3.78;;;;;;;;;;5008506;28;20418;-62
2022/01/21 12:22:14;;;;;;;20.33;3.03;;;;;;;;;;5043722;28;20042;-62
2022/01/21 12:24:51;;;;;;;22.80;3.53;;;;;;;;;;5013660;28;20052;-62
2022/01/21 12:27:18;;;;;;;27.60;3.15;;;;;;;;;;5010590;28;20061;-62
2022/01/21 12:29:44;;;;;;;19.23;3.00;;;;;;;;;;5010155;28;20124;-61
2022/01/21 12:32:24;;;;;;;18.58;3.15;;;;;;;;;;5010036;28;20133;-61
2022/01/21 12:34:56;;;;;;;21.67;2.83;;;;;;;;;;5009763;28;20472;-61
2022/01/21 12:37:26;;;;;;;28.27;3.47;;;;;;;;;;5008995;28;20486;-61
2022/01/21 12:39:52;;;;;;;25.95;3.97;;;;;;;;;;5010258;28;20486;-61
2022/01/21 12:42:25;;;;;;;24.52;3.80;;;;;;;;;;5009560;28;20046;-62
2022/01/21 12:44:54;;;;;;;19.63;3.07;;;;;;;;;;5010555;28;20049;-62
2022/01/21 12:47:27;;;;;;;31.45;3.30;;;;;;;;;;5006850;28;20042;-63
2022/01/21 12:49:54;;;;;;;;;;;;;;;;;;5006777;28;20042;-63
2022/01/21 12:52:42;;;;;;;13.82;2.53;;;;;;;;;;5010311;28;20036;-62
2022/01/21 12:58:02;;;;;;;32.22;5.13;;;;;;;;;;5016255;28;20045;-62
2022/01/21 13:00:28;;;;;;;22.55;3.13;;;;;;;;;;5039594;28;20077;-63
2022/01/21 13:02:56;;;;;;;24.38;3.38;;;;;;;;;;5005494;28;20065;-63
2022/01/21 13:05:27;;;;;;;25.70;3.75;;;;;;;;;;5009255;28;20381;-62
2022/01/21 13:08:02;;;;;;;28.23;3.95;;;;;;;;;;5010536;28;20041;-62
2022/01/21 13:10:29;;;;;;;30.33;3.70;;;;;;;;;;5010583;28;20046;-62
2022/01/21 13:13:13;;;;;;;27.50;4.57;;;;;;;;;;4988463;28;20038;-61
2022/01/21 13:15:43;;;;;;;31.25;4.57;;;;;;;;;;5006167;28;20056;-62
2022/01/21 13:18:11;;;;;;;28.83;4.45;;;;;;;;;;5008048;28;20050;-61
2022/01/21 13:20:38;;;;;;;19.60;3.65;;;;;;;;;;5007870;28;20112;-61
2022/01/21 13:23:04;;;;;;;34.47;5.05;;;;;;;;;;5005864;28;20048;-60
2022/01/21 13:25:32;;;;;;;27.48;4.00;;;;;;;;;;5006268;28;20041;-60
2022/01/21 13:28:00;;;;;;;30.27;3.38;;;;;;;;;;5007946;28;20057;-61
2022/01/21 13:30:28;;;;;;;27.08;4.07;;;;;;;;;;5006151;28;20133;-61
2022/01/21 13:33:01;;;;;;;28.13;4.22;;;;;;;;;;5007870;28;20037;-61
2022/01/21 13:35:29;;;;;;;28.98;4.30;;;;;;;;;;5002322;28;20131;-61
2022/01/21 13:38:03;;;;;;;30.58;5.50;;;;;;;;;;5006602;28;20817;-61
2022/01/21 13:40:32;;;;;;;28.17;4.18;;;;;;;;;;5006382;28;20108;-61
2022/01/21 13:43:09;;;;;;;30.67;3.25;;;;;;;;;;5007184;28;20394;-61
2022/01/21 13:45:35;;;;;;;22.10;3.47;;;;;;;;;;5008588;28;20455;-61
2022/01/21 13:48:03;;;;;;;18.60;2.95;;;;;;;;;;5006325;28;20045;-61
2022/01/21 13:50:30;;;;;;;27.08;3.75;;;;;;;;;;5008333;28;20097;-61
2022/01/21 13:53:01;;;;;;;28.25;3.88;;;;;;;;;;5040107;28;20054;-61
2022/01/21 13:55:38;;;;;;;27.23;3.55;;;;;;;;;;5007716;28;20132;-61
2022/01/21 13:58:07;;;;;;;21.88;3.15;;;;;;;;;;5005063;28;20045;-61
2022/01/21 14:00:34;;;;;;;24.50;2.97;;;;;;;;;;5005758;28;20049;-61
2022/01/21 14:03:01;;;;;;;33.10;3.75;;;;;;;;;;5010582;28;20053;-61
2022/01/21 14:05:41;;;;;;;30.40;4.25;;;;;;;;;;5041490;28;20049;-61
2022/01/21 14:08:11;;;;;;;32.95;4.80;;;;;;;;;;5009772;28;20056;-61
2022/01/21 14:10:37;;;;;;;27.08;3.85;;;;;;;;;;5012187;28;20050;-61
2022/01/21 14:13:04;;;;;;;16.77;2.85;;;;;;;;;;5011218;28;20038;-62
2022/01/21 14:15:31;;;;;;;22.52;3.28;;;;;;;;;;5011716;28;20046;-61
2022/01/21 14:17:58;;;;;;;20.90;4.22;;;;;;;;;;5010571;28;20049;-69
2022/01/21 14:20:24;;;;;;;23.33;2.88;;;;;;;;;;5011988;28;20097;-63
2022/01/21 14:22:51;;;;;;;22.75;4.20;;;;;;;;;;5011372;28;20052;-63
2022/01/21 14:25:17;;;;;;;31.35;4.07;;;;;;;;;;5012859;28;20041;-63
2022/01/21 14:27:47;;;;;;;23.80;3.10;;;;;;;;;;5009827;28;20099;-63
2022/01/21 14:30:14;;;;;;;31.75;3.65;;;;;;;;;;5011353;28;20085;-62
2022/01/21 14:32:42;;;;;;;27.98;3.15;;;;;;;;;;5010367;28;20045;-62
2022/01/21 14:35:12;;;;;;;22.52;4.07;;;;;;;;;;5008018;28;20050;-62
2022/01/21 14:37:42;;;;;;;23.15;3.50;;;;;;;;;;5009460;28;20077;-62
2022/01/21 14:40:09;;;;;;;22.95;2.83;;;;;;;;;;5008900;28;20103;-63
2022/01/21 14:42:35;;;;;;;23.08;3.35;;;;;;;;;;5009741;28;20046;-62
2022/01/21 14:45:10;;;;;;;25.98;2.70;;;;;;;;;;5006194;28;20137;-62
2022/01/21 14:47:36;;;;;;;19.98;4.15;;;;;;;;;;5009293;28;20497;-62
2022/01/21 14:50:07;;;;;;;16.05;2.03;;;;;;;;;;5008299;28;20048;-62
2022/01/21 14:52:42;;;;;;;22.00;2.20;;;;;;;;;;5006267;28;20041;-62
2022/01/21 14:55:11;;;;;;;13.85;2.47;;;;;;;;;;5012147;28;20080;-62
2022/01/21 14:57:38;;;;;;;18.77;3.38;;;;;;;;;;5009451;28;20057;-63
2022/01/21 15:00:06;;;;;;;12.63;2.15;;;;;;;;;;5009837;28;20385;-62
2022/01/21 15:02:35;;;;;;;12.90;2.30;;;;;;;;;;5006766;28;20060;-62
2022/01/21 15:05:04;;;;;;;23.25;1.95;;;;;;;;;;5007704;28;20053;-62
2022/01/21 15:07:31;;;;;;;19.17;2.97;;;;;;;;;;5008232;28;20077;-62
2022/01/21 15:10:01;;;;;;;22.48;2.50;;;;;;;;;;5006752;28;20085;-62
2022/01/21 15:15:26;;;;;;;19.42;2.53;;;;;;;;;;5003333;28;20370;-62
2022/01/21 15:17:53;;;;;;;17.10;2.47;;;;;;;;;;5004347;28;20055;-63
2022/01/21 15:20:21;;;;;;;19.80;2.95;;;;;;;;;;5007373;28;20037;-63
2022/01/21 15:22:47;;;;;;;29.85;5.30;;;;;;;;;;5007785;28;20053;-62
2022/01/21 15:25:14;;;;;;;17.38;2.90;;;;;;;;;;5011237;28;20361;-62
2022/01/21 15:27:42;;;;;;;14.45;2.85;;;;;;;;;;5010967;28;20046;-62
2022/01/21 15:30:08;;;;;;;20.70;2.80;;;;;;;;;;5007147;28;20517;-63
2022/01/21 15:32:36;;;;;;;17.45;1.83;;;;;;;;;;5007283;28;20132;-62